createdAt,value
2018-06-23T00:00:46.095Z,97.70
2018-06-23T00:03:14.027Z,97.90
2018-06-23T00:05:41.898Z,97.70
2018-06-23T00:08:10.074Z,97.80
2018-06-23T00:10:37.980Z,97.80
2018-06-23T00:13:05.915Z,97.90
2018-06-23T00:15:33.784Z,97.80
2018-06-23T00:18:01.744Z,97.40
2018-06-23T00:20:29.682Z,97.40
2018-06-23T00:22:57.683Z,97.80
2018-06-23T00:25:31.331Z,97.70
2018-06-23T00:27:59.184Z,97.50
2018-06-23T00:30:27.242Z,97.70
2018-06-23T00:32:55.150Z,97.80
2018-06-23T00:35:23.156Z,97.40
2018-06-23T00:37:51.048Z,97.50
2018-06-23T00:40:18.959Z,97.70
2018-06-23T00:42:46.910Z,97.70
2018-06-23T00:45:14.924Z,97.40
2018-06-23T00:47:42.830Z,97.80
2018-06-23T00:50:10.778Z,98.30
2018-06-23T00:52:38.657Z,98.10
2018-06-23T00:55:06.634Z,97.90
2018-06-23T00:57:34.504Z,98.10
2018-06-23T01:00:02.471Z,98.40
2018-06-23T01:02:30.423Z,98.00
2018-06-23T01:04:58.446Z,98.10
2018-06-23T01:07:26.358Z,98.40
2018-06-23T01:09:54.282Z,98.20
2018-06-23T01:12:22.257Z,98.30
2018-06-23T01:14:50.240Z,98.10
2018-06-23T01:17:18.204Z,97.80
2018-06-23T01:19:46.168Z,98.10
2018-06-23T01:22:14.065Z,97.70
2018-06-23T01:24:42.091Z,98.30
2018-06-23T01:27:10.029Z,98.60
2018-06-23T01:29:38.002Z,98.30
2018-06-23T01:32:05.956Z,98.40
2018-06-23T01:34:33.938Z,98.80
2018-06-23T01:37:01.888Z,98.10
2018-06-23T01:39:29.943Z,98.50
2018-06-23T01:41:57.864Z,98.30
2018-06-23T01:44:25.884Z,98.50
2018-06-23T01:46:54.125Z,98.40
2018-06-23T01:49:22.119Z,98.40
2018-06-23T01:51:49.997Z,98.20
2018-06-23T01:54:17.899Z,98.30
2018-06-23T01:56:45.772Z,97.70
2018-06-23T01:59:13.764Z,98.50
2018-06-23T02:01:41.681Z,98.50
2018-06-23T02:04:09.614Z,98.60
2018-06-23T02:06:37.485Z,98.60
2018-06-23T02:09:07.686Z,98.30
2018-06-23T02:11:35.582Z,98.20
2018-06-23T02:14:09.099Z,98.40
2018-06-23T02:16:42.480Z,98.30
2018-06-23T02:19:15.862Z,98.20
2018-06-23T02:21:49.272Z,98.20
2018-06-23T02:24:22.874Z,98.10
2018-06-23T02:26:57.437Z,98.20
2018-06-23T02:29:31.065Z,98.40
2018-06-23T02:32:04.455Z,98.60
2018-06-23T02:34:37.963Z,98.80
2018-06-23T02:37:06.003Z,99.00
2018-06-23T02:39:34.057Z,99.00
2018-06-23T02:42:02.080Z,99.00
2018-06-23T02:44:30.124Z,99.30
2018-06-23T02:46:58.053Z,99.30
2018-06-23T02:49:25.949Z,99.30
2018-06-23T02:51:53.870Z,99.30
2018-06-23T02:54:21.852Z,99.40
2018-06-23T02:56:49.771Z,99.10
2018-06-23T02:59:19.254Z,99.20
2018-06-23T03:01:47.992Z,99.00
2018-06-23T03:04:21.290Z,98.90
2018-06-23T03:06:49.202Z,99.00
2018-06-23T03:09:17.528Z,99.40
2018-06-23T03:11:45.523Z,99.10
2018-06-23T03:14:13.564Z,99.00
2018-06-23T03:16:41.492Z,99.40
2018-06-23T03:19:09.463Z,99.40
2018-06-23T03:21:37.369Z,99.30
2018-06-23T03:24:05.374Z,99.20
2018-06-23T03:26:33.289Z,99.20
2018-06-23T03:29:01.384Z,99.40
2018-06-23T03:31:29.267Z,99.40
2018-06-23T03:33:57.311Z,99.50
2018-06-23T03:36:25.207Z,99.40
2018-06-23T03:38:53.266Z,99.50
2018-06-23T03:41:21.166Z,99.80
2018-06-23T03:43:49.439Z,99.70
2018-06-23T03:46:17.297Z,99.60
2018-06-23T03:48:45.504Z,99.60
2018-06-23T03:51:13.430Z,99.90
2018-06-23T03:53:42.390Z,99.90
2018-06-23T03:56:10.357Z,99.90
2018-06-23T03:58:38.289Z,99.90
2018-06-23T04:01:07.956Z,99.90
2018-06-23T04:03:36.233Z,99.70
2018-06-23T04:06:04.206Z,99.50
2018-06-23T04:08:32.717Z,99.60
2018-06-23T04:11:00.630Z,99.60
2018-06-23T04:13:28.583Z,99.80
2018-06-23T04:15:56.490Z,99.90
2018-06-23T04:18:24.388Z,99.90
2018-06-23T04:20:52.322Z,99.80
2018-06-23T04:23:20.351Z,99.90
2018-06-23T04:25:48.269Z,99.80
2018-06-23T04:28:16.343Z,99.70
2018-06-23T04:30:44.258Z,99.60
2018-06-23T04:33:12.238Z,99.50
2018-06-23T04:35:40.136Z,99.10
2018-06-23T04:38:08.178Z,98.80
2018-06-23T04:40:36.124Z,98.90
2018-06-23T04:43:04.382Z,98.90
2018-06-23T04:45:32.276Z,98.70
2018-06-23T04:48:00.240Z,98.50
2018-06-23T04:50:28.303Z,98.60
2018-06-23T04:52:56.447Z,98.70
2018-06-23T04:57:52.113Z,97.50
2018-06-23T05:00:24.591Z,97.20
2018-06-23T05:02:53.041Z,96.80
2018-06-23T05:05:20.953Z,96.20
2018-06-23T05:07:48.953Z,96.30
2018-06-23T05:10:16.868Z,96.40
2018-06-23T05:12:44.810Z,96.20
2018-06-23T05:15:12.693Z,95.80
2018-06-23T05:17:40.639Z,95.30
2018-06-23T05:20:08.537Z,94.70
2018-06-23T05:22:36.548Z,94.00
2018-06-23T05:25:04.743Z,93.40
2018-06-23T05:27:32.790Z,93.50
2018-06-23T05:30:00.658Z,93.00
2018-06-23T05:32:28.596Z,92.80
2018-06-23T05:34:56.476Z,92.90
2018-06-23T05:37:24.445Z,93.00
2018-06-23T05:39:52.337Z,92.40
2018-06-23T05:42:20.300Z,92.10
2018-06-23T05:44:48.175Z,91.90
2018-06-23T05:47:16.197Z,90.80
2018-06-23T05:49:44.112Z,90.70
2018-06-23T05:52:12.062Z,90.50
2018-06-23T05:54:39.930Z,90.60
2018-06-23T05:57:07.914Z,90.10
2018-06-23T05:59:35.817Z,89.60
2018-06-23T06:02:03.911Z,89.20
2018-06-23T06:04:31.802Z,88.00
2018-06-23T06:06:59.766Z,87.60
2018-06-23T06:09:27.690Z,87.10
2018-06-23T06:11:55.674Z,87.20
2018-06-23T06:14:23.669Z,85.80
2018-06-23T06:17:24.056Z,86.20
2018-06-23T06:19:53.694Z,86.60
2018-06-23T06:22:22.520Z,84.10
2018-06-23T06:24:50.441Z,83.70
2018-06-23T06:27:18.367Z,85.70
2018-06-23T06:29:46.264Z,84.30
2018-06-23T06:32:14.193Z,84.50
2018-06-23T06:34:42.117Z,82.80
2018-06-23T06:37:10.032Z,82.70
2018-06-23T06:39:39.001Z,82.10
2018-06-23T06:42:06.876Z,82.10
2018-06-23T06:44:34.854Z,81.30
2018-06-23T06:47:02.727Z,80.30
2018-06-23T06:49:33.352Z,79.70
2018-06-23T06:52:01.284Z,79.80
2018-06-23T06:54:31.356Z,78.00
2018-06-23T06:56:59.310Z,78.80
2018-06-23T06:59:27.275Z,77.50
2018-06-23T07:01:55.194Z,74.70
2018-06-23T07:04:23.198Z,75.20
2018-06-23T07:06:51.115Z,75.50
2018-06-23T07:09:19.106Z,74.70
2018-06-23T07:11:47.077Z,76.30
2018-06-23T07:14:15.094Z,77.50
2018-06-23T07:16:43.045Z,77.00
2018-06-23T07:19:11.003Z,75.70
2018-06-23T07:21:38.951Z,74.40
2018-06-23T07:24:07.144Z,75.70
2018-06-23T07:26:35.749Z,72.30
2018-06-23T07:29:04.653Z,71.40
2018-06-23T07:31:32.751Z,72.00
2018-06-23T07:34:00.858Z,73.20
2018-06-23T07:36:29.097Z,74.30
2018-06-23T07:38:57.143Z,73.40
2018-06-23T07:41:25.098Z,71.50
2018-06-23T07:43:53.133Z,71.80
2018-06-23T07:46:21.123Z,70.50
2018-06-23T07:48:49.063Z,66.80
2018-06-23T07:51:16.991Z,67.40
2018-06-23T07:53:44.974Z,67.30
2018-06-23T07:56:12.980Z,65.20
2018-06-23T07:58:40.975Z,66.60
2018-06-23T08:01:08.893Z,67.80
2018-06-23T08:03:37.464Z,67.30
2018-06-23T08:06:05.736Z,66.20
2018-06-23T08:08:33.728Z,62.90
2018-06-23T08:11:01.647Z,63.30
2018-06-23T08:13:29.604Z,63.50
2018-06-23T08:15:58.572Z,63.70
2018-06-23T08:18:26.541Z,65.20
2018-06-23T08:20:54.435Z,62.60
2018-06-23T08:23:22.389Z,64.70
2018-06-23T08:25:50.345Z,64.70
2018-06-23T08:28:18.340Z,64.30
2018-06-23T08:30:46.334Z,59.70
2018-06-23T08:33:14.398Z,56.80
2018-06-23T08:36:09.016Z,57.30
2018-06-23T08:38:49.693Z,57.30
2018-06-23T08:41:17.712Z,54.40
2018-06-23T08:43:45.688Z,54.90
2018-06-23T08:46:13.659Z,51.70
2018-06-23T08:48:54.036Z,51.70
2018-06-23T08:51:21.942Z,52.40
2018-06-23T08:54:10.670Z,52.10
2018-06-23T08:56:52.184Z,53.30
2018-06-23T08:59:27.412Z,51.40
2018-06-23T09:01:55.380Z,51.10
2018-06-23T09:04:58.130Z,53.20
2018-06-23T09:07:26.068Z,52.00
2018-06-23T09:09:54.074Z,53.20
2018-06-23T09:12:21.922Z,53.40
2018-06-23T09:14:49.711Z,55.20
2018-06-23T09:17:17.733Z,50.70
2018-06-23T09:19:45.566Z,50.60
2018-06-23T09:22:13.379Z,51.90
2018-06-23T09:24:41.183Z,53.10
2018-06-23T09:27:08.942Z,53.90
2018-06-23T09:29:36.810Z,51.60
2018-06-23T09:32:04.641Z,51.70
2018-06-23T09:34:32.511Z,51.60
2018-06-23T09:37:00.278Z,51.60
2018-06-23T09:39:28.075Z,51.10
2018-06-23T09:41:55.872Z,52.30
2018-06-23T09:44:32.143Z,51.90
2018-06-23T09:47:00.034Z,53.50
2018-06-23T09:49:42.467Z,53.00
2018-06-23T09:52:10.462Z,52.80
2018-06-23T09:54:38.766Z,52.40
2018-06-23T09:57:07.277Z,52.60
2018-06-23T09:59:39.120Z,53.80
2018-06-23T10:02:07.201Z,51.00
2018-06-23T10:04:35.140Z,51.20
2018-06-23T10:07:03.338Z,50.80
2018-06-23T10:09:31.279Z,50.90
2018-06-23T10:11:59.271Z,49.50
2018-06-23T10:14:27.176Z,51.60
2018-06-23T10:16:55.246Z,49.60
2018-06-23T10:19:29.590Z,50.50
2018-06-23T10:22:03.951Z,50.50
2018-06-23T10:24:46.911Z,51.00
2018-06-23T10:27:15.243Z,49.00
2018-06-23T10:29:43.218Z,47.30
2018-06-23T10:32:11.146Z,45.40
2018-06-23T10:34:39.208Z,45.10
2018-06-23T10:37:07.128Z,45.50
2018-06-23T10:39:36.329Z,45.10
2018-06-23T10:42:16.992Z,43.90
2018-06-23T10:44:45.003Z,43.00
2018-06-23T10:47:12.939Z,42.60
2018-06-23T10:49:40.997Z,42.50
2018-06-23T10:52:09.036Z,39.60
2018-06-23T10:54:57.964Z,42.10
2018-06-23T10:57:26.141Z,42.20
2018-06-23T10:59:54.037Z,43.00
2018-06-23T11:04:50.834Z,43.00
2018-06-23T11:07:18.755Z,41.40
2018-06-23T11:09:46.571Z,42.00
2018-06-23T11:12:14.519Z,41.30
2018-06-23T11:14:42.280Z,39.20
2018-06-23T11:17:10.275Z,42.30
2018-06-23T11:19:38.086Z,42.40
2018-06-23T11:22:06.097Z,43.20
2018-06-23T11:24:33.997Z,41.50
2018-06-23T11:27:01.948Z,40.10
2018-06-23T11:29:29.792Z,39.60
2018-06-23T11:31:57.623Z,39.70
2018-06-23T11:34:25.446Z,37.70
2018-06-23T11:36:53.257Z,38.70
2018-06-23T11:39:21.229Z,39.00
2018-06-23T11:41:48.958Z,38.50
2018-06-23T11:44:16.979Z,40.30
2018-06-23T11:46:44.720Z,40.30
2018-06-23T11:49:12.785Z,41.00
2018-06-23T11:51:40.556Z,39.80
2018-06-23T11:54:16.418Z,38.90
2018-06-23T11:56:44.313Z,37.30
2018-06-23T11:59:12.264Z,37.50
2018-06-23T12:01:40.278Z,37.10
2018-06-23T12:04:08.189Z,35.50
2018-06-23T12:06:36.147Z,36.40
2018-06-23T12:09:17.454Z,38.40
2018-06-23T12:11:45.258Z,38.60
2018-06-23T12:14:13.193Z,37.70
2018-06-23T12:16:57.172Z,37.90
2018-06-23T12:19:25.029Z,36.30
2018-06-23T12:21:52.918Z,35.60
2018-06-23T12:24:20.825Z,36.30
2018-06-23T12:26:48.672Z,33.60
2018-06-23T12:29:16.482Z,37.50
2018-06-23T12:31:44.342Z,34.90
2018-06-23T12:34:12.142Z,35.80
2018-06-23T12:36:40.035Z,36.60
2018-06-23T12:39:09.049Z,35.40
2018-06-23T12:41:36.990Z,33.50
2018-06-23T12:44:04.867Z,34.00
2018-06-23T12:46:32.755Z,37.30
2018-06-23T12:49:00.505Z,34.30
2018-06-23T12:51:28.333Z,36.20
2018-06-23T12:53:56.207Z,36.10
2018-06-23T12:56:23.995Z,35.80
2018-06-23T12:58:51.772Z,35.70
2018-06-23T13:01:27.091Z,35.70
2018-06-23T13:03:55.050Z,34.50
2018-06-23T13:06:22.943Z,36.50
2018-06-23T13:08:50.844Z,35.70
2018-06-23T13:11:32.046Z,36.70
2018-06-23T13:13:59.944Z,36.50
2018-06-23T13:16:27.814Z,36.90
2018-06-23T13:19:09.427Z,35.10
2018-06-23T13:21:37.295Z,35.70
2018-06-23T13:24:05.183Z,34.40
2018-06-23T13:26:53.538Z,32.40
2018-06-23T13:29:21.427Z,34.40
2018-06-23T13:31:58.996Z,33.10
2018-06-23T13:34:26.901Z,33.30
2018-06-23T13:36:54.492Z,34.90
2018-06-23T13:39:22.368Z,35.40
2018-06-23T13:41:50.114Z,35.10
2018-06-23T13:44:17.936Z,38.60
2018-06-23T13:46:45.719Z,39.20
2018-06-23T13:49:13.583Z,37.20
2018-06-23T13:51:41.324Z,37.50
2018-06-23T13:54:09.216Z,38.90
2018-06-23T13:56:37.014Z,39.20
2018-06-23T13:59:04.842Z,40.10
2018-06-23T14:01:32.595Z,40.70
2018-06-23T14:04:01.474Z,38.70
2018-06-23T14:06:39.778Z,39.90
2018-06-23T14:09:09.205Z,39.80
2018-06-23T14:14:12.995Z,38.70
2018-06-23T14:16:40.902Z,38.20
2018-06-23T14:19:08.949Z,36.80
2018-06-23T14:21:49.825Z,37.10
2018-06-23T14:24:17.863Z,35.80
2018-06-23T14:27:02.777Z,36.90
2018-06-23T14:29:30.696Z,39.00
2018-06-23T14:31:58.862Z,40.60
2018-06-23T14:34:26.451Z,43.10
2018-06-23T14:36:54.353Z,42.90
2018-06-23T14:39:22.142Z,44.90
2018-06-23T14:41:49.954Z,44.50
2018-06-23T14:44:17.769Z,42.50
2018-06-23T14:46:45.535Z,42.90
2018-06-23T14:49:13.305Z,44.90
2018-06-23T14:51:41.104Z,41.30
2018-06-23T14:54:08.903Z,40.60
2018-06-23T14:56:36.894Z,40.90
2018-06-23T14:59:04.698Z,42.60
2018-06-23T15:01:32.605Z,41.80
2018-06-23T15:04:00.476Z,40.50
2018-06-23T15:06:28.331Z,39.40
2018-06-23T15:09:06.855Z,43.70
2018-06-23T15:11:53.562Z,42.60
2018-06-23T15:14:21.487Z,43.20
2018-06-23T15:16:49.403Z,40.10
2018-06-23T15:19:17.315Z,38.80
2018-06-23T15:22:00.638Z,38.00
2018-06-23T15:24:28.452Z,37.80
2018-06-23T15:26:56.345Z,37.90
2018-06-23T15:29:24.128Z,36.50
2018-06-23T15:31:51.939Z,37.20
2018-06-23T15:34:19.714Z,36.60
2018-06-23T15:36:47.654Z,36.50
2018-06-23T15:39:15.428Z,36.10
2018-06-23T15:41:43.269Z,33.30
2018-06-23T15:44:11.039Z,29.60
2018-06-23T15:46:38.873Z,28.00
2018-06-23T15:49:07.602Z,30.10
2018-06-23T15:51:35.579Z,30.30
2018-06-23T15:54:03.607Z,30.00
2018-06-23T15:56:31.469Z,28.00
2018-06-23T15:58:59.300Z,32.10
2018-06-23T16:01:27.121Z,35.30
2018-06-23T16:03:55.076Z,37.90
2018-06-23T16:06:22.883Z,36.80
2018-06-23T16:08:50.786Z,32.60
2018-06-23T16:11:18.537Z,33.00
2018-06-23T16:13:46.386Z,34.40
2018-06-23T16:16:14.319Z,33.30
2018-06-23T16:18:42.323Z,34.70
2018-06-23T16:21:10.214Z,37.10
2018-06-23T16:23:38.266Z,37.80
2018-06-23T16:26:06.196Z,39.40
2018-06-23T16:28:34.280Z,40.10
2018-06-23T16:31:02.155Z,41.70
2018-06-23T16:33:30.156Z,43.30
2018-06-23T16:35:58.070Z,43.00
2018-06-23T16:38:26.111Z,42.90
2018-06-23T16:40:54.171Z,41.80
2018-06-23T16:43:22.197Z,40.30
2018-06-23T16:46:04.327Z,42.10
2018-06-23T16:48:46.714Z,46.40
2018-06-23T16:51:14.648Z,49.20
2018-06-23T16:53:42.550Z,49.00
2018-06-23T16:56:10.472Z,49.50
2018-06-23T16:58:38.404Z,48.20
2018-06-23T17:01:06.328Z,49.40
2018-06-23T17:03:34.309Z,50.80
2018-06-23T17:06:02.204Z,52.00
2018-06-23T17:08:30.068Z,53.40
2018-06-23T17:10:57.966Z,53.20
2018-06-23T17:13:38.629Z,53.20
2018-06-23T17:16:06.472Z,52.80
2018-06-23T17:21:12.631Z,52.60
2018-06-23T17:23:40.512Z,53.00
2018-06-23T17:26:08.433Z,51.30
2018-06-23T17:28:49.463Z,50.90
2018-06-23T17:31:30.135Z,52.50
2018-06-23T17:34:05.924Z,52.70
2018-06-23T17:36:33.798Z,53.60
2018-06-23T17:39:10.194Z,54.10
2018-06-23T17:41:38.258Z,55.60
2018-06-23T17:44:06.197Z,56.20
2018-06-23T17:46:42.415Z,55.70
2018-06-23T17:49:37.918Z,55.10
2018-06-23T17:52:05.831Z,56.10
2018-06-23T17:54:33.719Z,56.80
2018-06-23T17:57:01.639Z,57.50
2018-06-23T17:59:53.806Z,56.60
2018-06-23T18:02:21.529Z,57.50
2018-06-23T18:04:49.368Z,58.00
2018-06-23T18:07:17.237Z,58.00
2018-06-23T18:09:45.024Z,58.30
2018-06-23T18:12:12.975Z,59.90
2018-06-23T18:14:40.704Z,59.90
2018-06-23T18:17:08.623Z,61.00
2018-06-23T18:19:36.435Z,61.80
2018-06-23T18:22:05.250Z,61.80
2018-06-23T18:24:33.152Z,62.00
2018-06-23T18:27:02.031Z,61.10
2018-06-23T18:29:30.021Z,60.90
2018-06-23T18:31:57.970Z,62.40
2018-06-23T18:34:25.887Z,63.70
2018-06-23T18:36:53.764Z,65.40
2018-06-23T18:39:21.682Z,66.70
2018-06-23T18:41:50.691Z,68.30
2018-06-23T18:44:18.645Z,69.30
2018-06-23T18:49:44.322Z,71.20
2018-06-23T18:52:12.151Z,73.20
2018-06-23T18:54:39.903Z,73.30
2018-06-23T18:57:07.704Z,73.90
2018-06-23T18:59:35.415Z,74.00
2018-06-23T19:02:03.301Z,75.10
2018-06-23T19:04:31.040Z,74.90
2018-06-23T19:06:58.891Z,76.10
2018-06-23T19:09:26.805Z,76.10
2018-06-23T19:11:54.554Z,77.20
2018-06-23T19:14:22.306Z,77.50
2018-06-23T19:16:50.308Z,77.40
2018-06-23T19:19:18.079Z,77.50
2018-06-23T19:21:45.910Z,78.10
2018-06-23T19:24:13.739Z,78.30
2018-06-23T19:26:41.564Z,78.60
2018-06-23T19:29:09.487Z,79.60
2018-06-23T19:31:37.464Z,78.80
2018-06-23T19:34:05.628Z,78.60
2018-06-23T19:36:33.584Z,77.90
2018-06-23T19:39:01.696Z,78.20
2018-06-23T19:41:33.459Z,77.80
2018-06-23T19:44:01.519Z,79.30
2018-06-23T19:46:36.500Z,77.60
2018-06-23T19:49:04.422Z,79.40
2018-06-23T19:51:32.316Z,78.90
2018-06-23T19:54:00.190Z,77.20
2018-06-23T19:56:28.024Z,79.20
2018-06-23T19:58:55.856Z,78.90
2018-06-23T20:01:23.762Z,80.90
2018-06-23T20:03:51.546Z,80.50
2018-06-23T20:06:19.490Z,80.90
2018-06-23T20:08:47.279Z,84.10
2018-06-23T20:11:15.388Z,84.10
2018-06-23T20:13:43.216Z,85.80
2018-06-23T20:16:11.185Z,86.10
2018-06-23T20:18:38.989Z,85.80
2018-06-23T20:21:06.864Z,88.30
2018-06-23T20:23:34.930Z,89.10
2018-06-23T20:26:02.759Z,88.50
2018-06-23T20:28:30.726Z,89.20
2018-06-23T20:30:58.568Z,89.80
2018-06-23T20:33:37.066Z,90.00
2018-06-23T20:36:05.078Z,89.70
2018-06-23T20:38:33.114Z,89.60
2018-06-23T20:41:01.107Z,90.60
2018-06-23T20:43:28.983Z,90.60
2018-06-23T20:45:56.962Z,90.50
2018-06-23T20:48:24.913Z,91.00
2018-06-23T20:50:52.778Z,91.00
2018-06-23T20:53:46.652Z,91.40
2018-06-23T20:56:14.665Z,91.80
2018-06-23T20:58:56.994Z,92.00
2018-06-23T21:01:24.990Z,91.90
2018-06-23T21:04:07.007Z,92.70
2018-06-23T21:06:34.883Z,92.50
2018-06-23T21:09:03.422Z,92.10
2018-06-23T21:11:57.758Z,92.80
2018-06-23T21:14:27.086Z,92.30
2018-06-23T21:16:55.095Z,92.20
2018-06-23T21:19:25.025Z,91.70
2018-06-23T21:22:00.738Z,92.30
2018-06-23T21:24:28.660Z,91.80
2018-06-23T21:26:56.631Z,94.20
2018-06-23T21:29:48.501Z,94.00
2018-06-23T21:32:16.337Z,93.70
2018-06-23T21:34:44.166Z,92.60
2018-06-23T21:39:37.504Z,92.60
2018-06-23T21:42:05.492Z,92.60
2018-06-23T21:44:33.410Z,92.30
2018-06-23T21:47:01.402Z,93.00
2018-06-23T21:49:29.286Z,92.40
2018-06-23T21:51:58.283Z,92.30
2018-06-23T21:54:26.185Z,92.90
2018-06-23T21:56:54.168Z,92.80
2018-06-23T21:59:22.040Z,92.40
2018-06-23T22:01:49.957Z,93.90
2018-06-23T22:04:17.848Z,94.60
2018-06-23T22:06:45.791Z,94.20
2018-06-23T22:09:13.588Z,93.10
2018-06-23T22:11:41.428Z,94.20
2018-06-23T22:14:09.250Z,93.70
2018-06-23T22:16:37.301Z,93.90
2018-06-23T22:19:05.037Z,91.80
2018-06-23T22:21:32.888Z,92.40
2018-06-23T22:24:00.690Z,94.90
2018-06-23T22:26:28.510Z,94.50
2018-06-23T22:28:56.271Z,95.50
2018-06-23T22:31:24.141Z,94.90
2018-06-23T22:36:25.842Z,94.50
2018-06-23T22:38:53.677Z,94.00
2018-06-23T22:41:21.515Z,95.10
2018-06-23T22:43:49.277Z,95.60
2018-06-23T22:46:17.224Z,96.30
2018-06-23T22:48:45.100Z,96.30
2018-06-23T22:51:12.893Z,96.90
2018-06-23T22:53:40.751Z,96.70
2018-06-23T22:56:08.632Z,96.80
2018-06-23T22:58:36.453Z,96.70
2018-06-23T23:01:04.416Z,96.70
2018-06-23T23:03:32.184Z,96.90
2018-06-23T23:06:00.027Z,97.10
2018-06-23T23:08:27.817Z,97.00
2018-06-23T23:10:55.574Z,96.20
2018-06-23T23:13:58.968Z,96.70
2018-06-23T23:16:26.813Z,94.70
2018-06-23T23:18:54.718Z,95.00
2018-06-23T23:21:22.625Z,95.10
2018-06-23T23:23:50.573Z,95.40
2018-06-23T23:26:18.462Z,95.10
2018-06-23T23:28:46.252Z,95.70
2018-06-23T23:31:14.087Z,96.00
2018-06-23T23:33:41.849Z,97.00
2018-06-23T23:36:09.718Z,96.90
2018-06-23T23:38:37.450Z,96.70
2018-06-23T23:41:05.345Z,96.30
2018-06-23T23:43:33.120Z,95.40
2018-06-23T23:46:00.960Z,95.50
2018-06-23T23:48:29.265Z,96.70
2018-06-23T23:50:57.140Z,96.10
2018-06-23T23:53:24.939Z,96.60
2018-06-23T23:55:52.791Z,96.30
2018-06-23T23:58:24.684Z,96.00
